Time;durP1;ratioP1;P1;durP2;ratioP2;P2;SDS_P1;SDS_P2;PMS_P1;PMS_P2;Temp;Humidity;BMP_temperature;BMP_pressure;BME280_temperature;BME280_humidity;BME280_pressure;Samples;Min_cycle;Max_cycle;Signal;HPM_P1;HPM_P2
2021/09/12 00:02:19;;;;;;;51.22;32.25;;;17.40;99.90;;;;;;5048872;28;20048;-76
2021/09/12 00:04:45;;;;;;;48.67;29.83;;;17.40;99.90;;;;;;5054675;28;20098;-76
2021/09/12 00:07:17;;;;;;;61.50;33.33;;;17.40;99.90;;;;;;5055452;28;20056;-76
2021/09/12 00:09:43;;;;;;;61.88;34.55;;;17.40;99.90;;;;;;5065977;28;20049;-76
2021/09/12 00:12:09;;;;;;;52.78;32.83;;;17.40;99.90;;;;;;5045597;28;20036;-76
2021/09/12 00:14:35;;;;;;;52.13;31.50;;;17.30;99.90;;;;;;5045349;28;20383;-76
2021/09/12 00:17:01;;;;;;;60.78;33.28;;;17.40;99.90;;;;;;5055806;28;20041;-76
2021/09/12 00:19:27;;;;;;;64.88;34.60;;;17.30;99.90;;;;;;5059587;28;20036;-76
2021/09/12 00:21:56;;;;;;;64.88;34.20;;;17.40;99.90;;;;;;5079283;28;20121;-77
2021/09/12 00:24:22;;;;;;;65.80;34.90;;;17.30;99.90;;;;;;5064488;28;20032;-76
2021/09/12 00:26:50;;;;;;;58.42;32.80;;;17.30;99.90;;;;;;5047130;28;20505;-76
2021/09/12 00:29:17;;;;;;;60.20;33.63;;;17.30;99.90;;;;;;5068090;28;20048;-76
2021/09/12 00:31:46;;;;;;;52.80;32.80;;;17.30;99.90;;;;;;5050565;28;20048;-76
2021/09/12 00:34:12;;;;;;;79.35;35.38;;;17.30;99.90;;;;;;5046996;28;20490;-76
2021/09/12 00:36:38;;;;;;;53.90;32.22;;;17.30;99.90;;;;;;5076975;28;20086;-76
2021/09/12 00:39:07;;;;;;;50.67;30.25;;;17.20;99.90;;;;;;5054989;28;20049;-76
2021/09/12 00:41:37;;;;;;;52.30;33.47;;;17.20;99.90;;;;;;5067760;28;20063;-76
2021/09/12 00:44:12;;;;;;;45.55;29.17;;;17.20;99.90;;;;;;5056674;28;20491;-76
2021/09/12 00:46:44;;;;;;;56.72;31.58;;;17.20;99.90;;;;;;5073868;28;20041;-76
2021/09/12 00:49:10;;;;;;;46.75;29.75;;;17.10;99.90;;;;;;5088276;28;20028;-76
2021/09/12 00:51:36;;;;;;;52.13;31.95;;;17.10;99.90;;;;;;5065589;28;20039;-76
2021/09/12 00:54:08;;;;;;;52.05;29.75;;;17.10;99.90;;;;;;5085412;28;20040;-76
2021/09/12 00:56:42;;;;;;;45.08;27.90;;;17.00;99.90;;;;;;5070154;28;20040;-76
2021/09/12 00:59:11;;;;;;;49.63;30.67;;;17.00;99.90;;;;;;5055971;28;20111;-77
2021/09/12 01:01:40;;;;;;;60.30;31.83;;;17.00;99.90;;;;;;5078617;28;20099;-78
2021/09/12 01:04:08;;;;;;;49.50;30.58;;;17.00;99.90;;;;;;5092204;28;20127;-77
2021/09/12 01:06:37;;;;;;;46.17;26.27;;;17.00;99.90;;;;;;5074182;28;20524;-76
2021/09/12 01:09:06;;;;;;;45.30;27.50;;;16.90;99.90;;;;;;5083601;28;20040;-77
2021/09/12 01:11:38;;;;;;;41.30;26.75;;;16.90;99.90;;;;;;5085525;28;20040;-77
2021/09/12 01:14:04;;;;;;;51.80;30.23;;;16.80;99.90;;;;;;5081942;28;20498;-77
2021/09/12 01:16:30;;;;;;;44.45;28.20;;;16.90;99.90;;;;;;5068300;28;20039;-77
2021/09/12 01:18:56;;;;;;;47.47;29.67;;;16.90;99.90;;;;;;5087926;28;20044;-77
2021/09/12 01:21:26;;;;;;;48.65;29.42;;;16.80;99.90;;;;;;5076047;28;20051;-77
2021/09/12 01:23:53;;;;;;;71.75;32.92;;;16.80;99.90;;;;;;5082275;28;20040;-77
2021/09/12 01:26:26;;;;;;;68.38;34.08;;;16.80;99.90;;;;;;5075155;28;20133;-77
2021/09/12 01:28:54;;;;;;;50.10;30.00;;;16.80;99.90;;;;;;5059743;28;20140;-77
2021/09/12 01:31:24;;;;;;;61.78;32.22;;;16.80;99.90;;;;;;5062874;28;20036;-77
2021/09/12 01:33:54;;;;;;;50.35;29.98;;;16.70;99.90;;;;;;5073296;28;20041;-77
2021/09/12 01:36:19;;;;;;;52.42;28.83;;;16.70;99.90;;;;;;5066237;28;20420;-77
2021/09/12 01:38:46;;;;;;;43.75;28.55;;;16.70;99.90;;;;;;5072267;28;20088;-77
2021/09/12 01:41:15;;;;;;;71.70;33.13;;;16.70;99.90;;;;;;5085403;28;20097;-77
2021/09/12 01:43:53;;;;;;;51.20;28.63;;;16.70;99.90;;;;;;5063417;28;20059;-77
2021/09/12 01:46:19;;;;;;;54.35;30.90;;;16.60;99.90;;;;;;5087750;28;20106;-77
2021/09/12 01:48:45;;;;;;;46.65;30.23;;;16.60;99.90;;;;;;5059933;28;20040;-77
2021/09/12 01:51:12;;;;;;;48.45;29.15;;;16.60;99.90;;;;;;5084679;28;20047;-77
2021/09/12 01:53:41;;;;;;;74.43;33.35;;;16.60;99.90;;;;;;5067551;28;20052;-77
2021/09/12 01:56:07;;;;;;;58.50;30.48;;;16.60;99.90;;;;;;5045664;28;20100;-77
2021/09/12 01:58:36;;;;;;;82.57;36.08;;;16.60;99.90;;;;;;5061517;28;20063;-77
2021/09/12 02:01:04;;;;;;;55.30;30.38;;;16.50;99.90;;;;;;5065460;28;20045;-78
2021/09/12 02:03:29;;;;;;;56.47;30.08;;;16.60;99.90;;;;;;5072226;28;20044;-77
2021/09/12 02:05:55;;;;;;;54.63;31.25;;;16.50;99.90;;;;;;5082650;28;20615;-78
2021/09/12 02:08:21;;;;;;;64.82;31.15;;;16.50;99.90;;;;;;5085201;28;20040;-77
2021/09/12 02:10:47;;;;;;;53.40;29.95;;;16.50;99.90;;;;;;5087113;28;20036;-77
2021/09/12 02:13:13;;;;;;;50.35;27.50;;;16.50;99.90;;;;;;5071057;28;20040;-77
2021/09/12 02:15:39;;;;;;;52.70;29.38;;;16.40;99.90;;;;;;5092981;28;20063;-78
2021/09/12 02:18:09;;;;;;;44.05;26.08;;;16.40;99.90;;;;;;5084497;28;20076;-77
2021/09/12 02:20:38;;;;;;;50.33;27.10;;;16.40;99.90;;;;;;5070490;28;20055;-79
2021/09/12 02:23:06;;;;;;;48.28;27.65;;;16.30;99.90;;;;;;5083152;28;20035;-78
2021/09/12 02:25:32;;;;;;;46.80;26.35;;;16.30;99.90;;;;;;5074190;28;20051;-77
2021/09/12 02:27:58;;;;;;;42.20;26.02;;;16.30;99.90;;;;;;5051271;28;20132;-78
2021/09/12 02:30:24;;;;;;;45.03;26.90;;;16.30;99.90;;;;;;5048529;28;20942;-76
2021/09/12 02:32:49;;;;;;;40.25;24.25;;;16.20;99.90;;;;;;5084072;28;20044;-77
2021/09/12 02:35:18;;;;;;;46.97;25.52;;;16.20;99.90;;;;;;5082350;28;20130;-77
2021/09/12 02:37:44;;;;;;;44.42;24.73;;;16.20;99.90;;;;;;5073838;27;20452;-77
2021/09/12 02:40:11;;;;;;;40.00;21.70;;;16.10;99.90;;;;;;5052633;27;20044;-78
2021/09/12 02:42:40;;;;;;;42.17;24.08;;;16.20;99.90;;;;;;5081398;27;20044;-77
2021/09/12 02:45:08;;;;;;;45.35;25.23;;;16.10;99.90;;;;;;5094913;27;20038;-78
2021/09/12 02:47:38;;;;;;;41.35;23.52;;;16.10;99.90;;;;;;5081802;28;20397;-77
2021/09/12 02:50:06;;;;;;;44.05;24.35;;;16.10;99.90;;;;;;5066324;28;20549;-77
2021/09/12 02:52:35;;;;;;;46.22;25.75;;;16.10;99.90;;;;;;5068415;27;20046;-76
2021/09/12 02:55:01;;;;;;;47.85;24.27;;;16.00;99.90;;;;;;5062932;28;20070;-79
2021/09/12 02:57:27;;;;;;;49.72;25.70;;;16.00;99.90;;;;;;5052994;27;20051;-77
2021/09/12 02:59:53;;;;;;;45.42;24.90;;;16.10;99.90;;;;;;5075884;28;20035;-77
2021/09/12 03:02:19;;;;;;;46.05;25.05;;;16.10;99.90;;;;;;5071497;28;20089;-77
2021/09/12 03:04:45;;;;;;;45.75;25.45;;;16.00;99.90;;;;;;5059535;27;20043;-77
2021/09/12 03:07:10;;;;;;;44.20;24.23;;;16.00;99.90;;;;;;5075909;27;20035;-78
2021/09/12 03:09:39;;;;;;;46.83;26.55;;;16.00;99.90;;;;;;5072408;27;20516;-77
2021/09/12 03:12:05;;;;;;;39.03;23.50;;;16.00;99.90;;;;;;5060278;27;20125;-77
2021/09/12 03:14:31;;;;;;;46.00;25.02;;;16.10;99.90;;;;;;5068798;27;20685;-76
2021/09/12 03:16:57;;;;;;;44.88;25.90;;;16.10;99.90;;;;;;5053209;28;20131;-77
2021/09/12 03:19:26;;;;;;;45.33;25.15;;;16.00;99.90;;;;;;5076532;27;20054;-76
2021/09/12 03:21:52;;;;;;;45.40;25.10;;;16.00;99.90;;;;;;5064819;27;20055;-77
2021/09/12 03:24:17;;;;;;;49.05;25.40;;;16.00;99.90;;;;;;5089366;28;20105;-77
2021/09/12 03:26:43;;;;;;;40.92;23.65;;;16.00;99.90;;;;;;5074452;28;20054;-77
2021/09/12 03:29:09;;;;;;;50.22;24.75;;;16.00;99.90;;;;;;5095607;27;20039;-77
2021/09/12 03:31:35;;;;;;;36.78;21.70;;;16.00;99.90;;;;;;5089298;28;20039;-77
2021/09/12 03:34:01;;;;;;;40.67;22.63;;;16.00;99.90;;;;;;5075970;28;20056;-78
2021/09/12 03:36:36;;;;;;;36.88;20.88;;;16.00;99.90;;;;;;5088636;28;20090;-78
2021/09/12 03:39:02;;;;;;;36.97;21.08;;;15.90;99.90;;;;;;5088998;27;20035;-77
2021/09/12 03:41:27;;;;;;;36.60;20.50;;;16.00;99.90;;;;;;5038888;28;20040;-77
2021/09/12 03:43:53;;;;;;;33.97;18.65;;;15.90;99.90;;;;;;5092284;28;20336;-77
2021/09/12 03:46:20;;;;;;;35.58;18.85;;;15.90;99.90;;;;;;5061236;28;20096;-78
2021/09/12 03:48:46;;;;;;;37.08;20.35;;;15.90;99.90;;;;;;5079181;28;20140;-77
2021/09/12 03:51:12;;;;;;;33.15;17.95;;;15.90;99.90;;;;;;5055016;28;20043;-78
2021/09/12 03:53:38;;;;;;;35.67;18.38;;;15.80;99.90;;;;;;5085088;28;20402;-77
2021/09/12 03:56:06;;;;;;;31.90;19.27;;;15.80;99.90;;;;;;5084752;28;20071;-77
2021/09/12 03:58:32;;;;;;;30.17;18.33;;;15.80;99.90;;;;;;5059765;27;20082;-77
2021/09/12 04:00:58;;;;;;;35.65;18.38;;;15.80;99.90;;;;;;5046276;28;20079;-77
2021/09/12 04:03:24;;;;;;;35.78;18.75;;;15.70;99.90;;;;;;5051089;28;20044;-78
2021/09/12 04:05:50;;;;;;;37.58;18.73;;;15.70;99.90;;;;;;5075238;28;20048;-77
2021/09/12 04:08:15;;;;;;;29.83;17.80;;;15.70;99.90;;;;;;5050112;28;20040;-77
2021/09/12 04:10:41;;;;;;;29.35;17.55;;;15.60;99.90;;;;;;5052878;28;20084;-77
2021/09/12 04:13:07;;;;;;;27.63;17.23;;;15.60;99.90;;;;;;5051105;28;20042;-77
2021/09/12 04:15:36;;;;;;;32.28;18.33;;;15.60;99.90;;;;;;5067064;28;20043;-78
2021/09/12 04:18:02;;;;;;;31.75;17.08;;;15.70;99.90;;;;;;5080458;28;20036;-77
2021/09/12 04:20:27;;;;;;;28.88;17.40;;;15.60;99.90;;;;;;5050050;28;20140;-77
2021/09/12 04:22:53;;;;;;;33.00;19.13;;;15.60;99.90;;;;;;5066997;28;20051;-76
2021/09/12 04:25:19;;;;;;;38.20;19.00;;;15.60;99.90;;;;;;5070340;28;20545;-76
2021/09/12 04:27:48;;;;;;;35.63;17.13;;;15.60;99.90;;;;;;5050621;28;20055;-77
2021/09/12 04:30:15;;;;;;;38.45;17.75;;;15.60;99.90;;;;;;5049904;28;20040;-77
2021/09/12 04:32:41;;;;;;;33.70;19.35;;;15.60;99.90;;;;;;5076994;28;20051;-76
2021/09/12 04:35:08;;;;;;;36.05;18.90;;;15.60;99.90;;;;;;5043074;28;20494;-76
2021/09/12 04:37:37;;;;;;;30.85;17.30;;;15.60;99.90;;;;;;5080808;28;20118;-77
2021/09/12 04:40:07;;;;;;;30.88;16.77;;;15.60;99.90;;;;;;5059202;28;20047;-77
2021/09/12 04:42:33;;;;;;;28.75;17.52;;;15.60;99.90;;;;;;5074361;28;20483;-78
2021/09/12 04:45:04;;;;;;;32.47;18.35;;;15.60;99.90;;;;;;5064369;28;20043;-77
2021/09/12 04:47:30;;;;;;;28.70;17.08;;;15.60;99.90;;;;;;5075523;28;20093;-77
2021/09/12 04:49:56;;;;;;;34.75;17.50;;;15.60;99.90;;;;;;5064804;28;20098;-77
2021/09/12 04:52:22;;;;;;;30.35;17.50;;;15.60;99.90;;;;;;5073409;28;20632;-77
2021/09/12 04:54:51;;;;;;;33.03;18.08;;;15.60;99.90;;;;;;5051313;28;20044;-78
2021/09/12 04:57:17;;;;;;;29.98;17.17;;;15.70;99.90;;;;;;5085527;28;20127;-77
2021/09/12 04:59:42;;;;;;;31.42;16.80;;;15.70;99.90;;;;;;5050454;28;20130;-76
2021/09/12 05:02:08;;;;;;;33.47;17.48;;;15.70;99.90;;;;;;5066186;28;20066;-77
2021/09/12 05:04:34;;;;;;;31.90;18.15;;;15.70;99.90;;;;;;5075408;28;20039;-77
2021/09/12 05:07:00;;;;;;;35.47;17.80;;;15.70;99.90;;;;;;5064494;28;20086;-77
2021/09/12 05:09:26;;;;;;;32.40;18.40;;;15.70;99.90;;;;;;5063188;28;20032;-77
2021/09/12 05:11:51;;;;;;;36.45;18.65;;;15.70;99.90;;;;;;5047863;28;20038;-77
2021/09/12 05:14:17;;;;;;;32.30;18.65;;;15.70;99.90;;;;;;5054014;28;20051;-77
2021/09/12 05:16:43;;;;;;;29.00;17.98;;;15.70;99.90;;;;;;5077574;28;20450;-77
2021/09/12 05:19:09;;;;;;;34.08;18.35;;;15.80;99.90;;;;;;5065215;28;20043;-77
2021/09/12 05:21:35;;;;;;;33.95;18.42;;;15.80;99.90;;;;;;5064798;28;20506;-77
2021/09/12 05:24:01;;;;;;;29.27;18.33;;;15.80;99.90;;;;;;5074587;28;20051;-76
2021/09/12 05:26:26;;;;;;;37.75;17.70;;;15.80;99.90;;;;;;5039035;28;20040;-77
2021/09/12 05:28:52;;;;;;;37.53;18.50;;;15.80;99.90;;;;;;5068372;28;20043;-76
2021/09/12 05:31:24;;;;;;;31.58;18.65;;;15.90;99.90;;;;;;5068191;28;20040;-77
2021/09/12 05:33:50;;;;;;;29.77;17.30;;;15.90;99.90;;;;;;5077781;28;20094;-77
2021/09/12 05:36:16;;;;;;;28.55;16.63;;;15.90;99.90;;;;;;5036451;28;20491;-76
2021/09/12 05:38:42;;;;;;;32.10;17.65;;;15.90;99.90;;;;;;5058481;28;20051;-76
2021/09/12 05:41:08;;;;;;;28.90;16.33;;;15.90;99.90;;;;;;5076913;28;20670;-77
2021/09/12 05:43:37;;;;;;;30.33;15.30;;;15.90;99.90;;;;;;5076879;28;20067;-77
2021/09/12 05:46:02;;;;;;;29.85;16.88;;;16.00;99.90;;;;;;5052565;28;20833;-77
2021/09/12 05:48:28;;;;;;;29.85;16.67;;;16.00;99.90;;;;;;5049598;28;20126;-77
2021/09/12 05:50:57;;;;;;;31.20;17.33;;;16.00;99.90;;;;;;5053578;28;20055;-77
2021/09/12 05:53:24;;;;;;;27.25;16.25;;;16.00;99.90;;;;;;5047501;28;20063;-77
2021/09/12 05:55:50;;;;;;;30.50;17.00;;;16.00;99.90;;;;;;5053202;28;20123;-77
2021/09/12 05:58:19;;;;;;;27.15;14.70;;;16.00;99.90;;;;;;5050765;28;20063;-77
2021/09/12 06:00:45;;;;;;;28.67;15.65;;;16.00;99.90;;;;;;5068717;28;20036;-77
2021/09/12 06:03:11;;;;;;;34.50;17.63;;;16.00;99.90;;;;;;5079650;28;20048;-77
2021/09/12 06:05:37;;;;;;;26.13;16.00;;;16.00;99.90;;;;;;5059752;28;20676;-77
2021/09/12 06:08:06;;;;;;;34.00;16.77;;;16.10;99.90;;;;;;5080640;28;20047;-76
2021/09/12 06:10:32;;;;;;;31.50;17.02;;;16.00;99.90;;;;;;5065182;28;20081;-77
2021/09/12 06:12:58;;;;;;;25.80;16.20;;;16.00;99.90;;;;;;5039207;28;20040;-77
2021/09/12 06:15:24;;;;;;;27.02;16.00;;;16.00;99.90;;;;;;5064539;28;20070;-76
2021/09/12 06:17:50;;;;;;;31.95;16.77;;;16.00;99.90;;;;;;5074056;28;20086;-78
2021/09/12 06:20:15;;;;;;;30.77;16.50;;;16.10;99.90;;;;;;5073042;28;20499;-77
2021/09/12 06:22:46;;;;;;;26.58;14.73;;;16.10;99.90;;;;;;5058228;28;20502;-77
2021/09/12 06:25:12;;;;;;;27.90;16.52;;;16.10;99.90;;;;;;5052418;28;20040;-77
2021/09/12 06:27:39;;;;;;;34.72;16.48;;;16.10;99.90;;;;;;5067584;28;20047;-77
2021/09/12 06:30:08;;;;;;;26.75;16.30;;;16.10;99.90;;;;;;5067945;28;20113;-77
2021/09/12 06:32:37;;;;;;;30.50;16.27;;;16.20;99.90;;;;;;5073790;28;20693;-78
2021/09/12 06:35:06;;;;;;;26.73;15.90;;;16.20;99.90;;;;;;5052587;28;20108;-77
2021/09/12 06:37:35;;;;;;;27.63;14.95;;;16.20;99.90;;;;;;5053525;28;20051;-77
2021/09/12 06:40:01;;;;;;;26.02;16.02;;;16.20;99.90;;;;;;5068357;28;20079;-75
2021/09/12 06:42:27;;;;;;;26.08;15.18;;;16.30;99.90;;;;;;5070885;28;20054;-76
2021/09/12 06:44:53;;;;;;;29.23;16.65;;;16.30;99.90;;;;;;5072129;28;20047;-76
2021/09/12 06:47:18;;;;;;;29.55;15.60;;;16.30;99.90;;;;;;5050217;28;20455;-76
2021/09/12 06:49:44;;;;;;;25.02;16.27;;;16.30;99.90;;;;;;5084538;28;20146;-76
2021/09/12 06:52:10;;;;;;;27.35;16.23;;;16.30;99.90;;;;;;5066474;28;20101;-76
2021/09/12 06:54:36;;;;;;;33.75;16.90;;;16.40;99.90;;;;;;5071932;28;20038;-76
2021/09/12 06:57:05;;;;;;;27.50;15.57;;;16.40;99.90;;;;;;5043748;28;20061;-76
2021/09/12 06:59:31;;;;;;;28.88;14.85;;;16.40;99.90;;;;;;5055988;28;20123;-76
2021/09/12 07:01:56;;;;;;;26.02;16.20;;;16.50;99.90;;;;;;5059530;28;20119;-76
2021/09/12 07:04:25;;;;;;;26.23;15.50;;;16.50;99.90;;;;;;5041088;28;20070;-76
2021/09/12 07:06:53;;;;;;;25.40;16.33;;;16.50;99.90;;;;;;5095589;28;20040;-75
2021/09/12 07:09:22;;;;;;;23.55;14.63;;;16.60;99.90;;;;;;5054190;28;20050;-76
2021/09/12 07:11:48;;;;;;;33.78;16.95;;;16.60;99.90;;;;;;5052774;28;20051;-76
2021/09/12 07:14:14;;;;;;;26.95;16.48;;;16.70;99.90;;;;;;5059106;28;20047;-76
2021/09/12 07:16:40;;;;;;;28.60;16.83;;;16.80;99.90;;;;;;5043578;28;20052;-76
2021/09/12 07:19:08;;;;;;;25.52;16.42;;;16.80;99.90;;;;;;5061792;28;20052;-76
2021/09/12 07:21:35;;;;;;;34.72;19.27;;;16.90;99.90;;;;;;5050722;28;20066;-76
2021/09/12 07:24:02;;;;;;;28.13;17.48;;;16.90;99.90;;;;;;5083727;28;20076;-76
2021/09/12 07:26:37;;;;;;;31.70;18.67;;;16.90;99.90;;;;;;5055293;28;20127;-76
2021/09/12 07:29:03;;;;;;;31.35;20.30;;;17.00;99.90;;;;;;5062376;28;20054;-75
2021/09/12 07:31:29;;;;;;;32.63;20.23;;;17.00;99.90;;;;;;5056468;28;20048;-76
2021/09/12 07:33:55;;;;;;;31.23;20.85;;;17.00;99.90;;;;;;5064893;28;20104;-76
2021/09/12 07:36:21;;;;;;;35.15;20.90;;;17.00;99.90;;;;;;5066149;28;20574;-76
2021/09/12 07:38:49;;;;;;;33.92;21.65;;;17.00;99.90;;;;;;5088029;27;20039;-76
2021/09/12 07:41:15;;;;;;;28.77;20.38;;;17.10;99.90;;;;;;5066804;28;20118;-75
2021/09/12 07:43:41;;;;;;;30.13;22.15;;;17.10;99.90;;;;;;5064281;28;20142;-76
2021/09/12 07:46:16;;;;;;;31.83;21.83;;;17.10;99.90;;;;;;5056342;28;20043;-76
2021/09/12 07:48:42;;;;;;;38.70;24.17;;;17.10;99.90;;;;;;5052674;28;20607;-75
2021/09/12 07:51:08;;;;;;;34.63;23.58;;;17.10;99.90;;;;;;5061389;28;20036;-76
2021/09/12 07:53:36;;;;;;;34.08;24.17;;;17.10;99.90;;;;;;5051457;28;20057;-76
2021/09/12 07:56:06;;;;;;;34.83;24.40;;;17.20;99.90;;;;;;5060022;28;20066;-76
2021/09/12 07:58:32;;;;;;;38.47;25.73;;;17.20;99.90;;;;;;5061919;28;20043;-76
2021/09/12 08:00:57;;;;;;;40.25;25.80;;;17.20;99.90;;;;;;5070132;28;20556;-76
2021/09/12 08:03:23;;;;;;;33.42;25.95;;;17.20;99.90;;;;;;5061000;28;20113;-75
2021/09/12 08:05:49;;;;;;;41.97;28.38;;;17.20;99.90;;;;;;5067829;28;20048;-76
2021/09/12 08:08:15;;;;;;;40.40;26.77;;;17.20;99.90;;;;;;5059649;28;20486;-76
2021/09/12 08:10:41;;;;;;;38.63;27.30;;;17.20;99.90;;;;;;5088544;28;20493;-76
2021/09/12 08:13:07;;;;;;;37.20;27.60;;;17.20;99.90;;;;;;5086077;28;20066;-75
2021/09/12 08:15:32;;;;;;;34.42;27.20;;;17.30;99.90;;;;;;5072672;28;20039;-76
2021/09/12 08:17:58;;;;;;;43.65;28.88;;;17.30;99.90;;;;;;5040498;28;20043;-76
2021/09/12 08:20:24;;;;;;;39.92;27.88;;;17.40;99.90;;;;;;5061751;28;20036;-76
2021/09/12 08:22:50;;;;;;;41.58;28.90;;;17.40;99.90;;;;;;5067441;28;20125;-76
2021/09/12 08:25:16;;;;;;;41.22;29.70;;;17.50;99.90;;;;;;5086419;27;20043;-76
2021/09/12 08:27:42;;;;;;;38.50;26.27;;;17.50;99.90;;;;;;5068265;28;20081;-75
2021/09/12 08:30:08;;;;;;;40.50;28.83;;;17.50;99.90;;;;;;5067026;28;20048;-75
2021/09/12 08:32:43;;;;;;;35.90;27.52;;;17.50;99.90;;;;;;5064805;28;20074;-76
2021/09/12 08:35:10;;;;;;;41.25;27.20;;;17.50;99.90;;;;;;5049019;28;20051;-76
2021/09/12 08:37:36;;;;;;;34.05;27.52;;;17.60;99.90;;;;;;5067931;28;20502;-76
2021/09/12 08:40:06;;;;;;;37.88;28.30;;;17.50;99.90;;;;;;5082263;27;20151;-76
2021/09/12 08:42:36;;;;;;;42.83;28.55;;;17.60;99.90;;;;;;5086081;28;20059;-75
2021/09/12 08:45:03;;;;;;;38.75;28.20;;;17.60;99.90;;;;;;5080267;27;20506;-75
2021/09/12 08:47:32;;;;;;;41.95;28.45;;;17.60;99.90;;;;;;5064250;28;20048;-75
2021/09/12 08:49:58;;;;;;;39.60;27.90;;;17.60;99.90;;;;;;5060821;28;20105;-75
2021/09/12 08:52:24;;;;;;;45.17;28.20;;;17.70;99.90;;;;;;5075559;28;20043;-76
2021/09/12 08:54:49;;;;;;;40.22;28.27;;;17.70;99.90;;;;;;5073967;28;20868;-74
2021/09/12 08:57:18;;;;;;;37.22;26.80;;;17.70;99.90;;;;;;5086175;27;20406;-75
2021/09/12 08:59:49;;;;;;;40.65;26.55;;;17.70;99.90;;;;;;5062792;27;20389;-75
2021/09/12 09:02:25;;;;;;;35.83;26.05;;;17.70;99.90;;;;;;5059952;28;20493;-75
2021/09/12 09:05:01;;;;;;;38.58;27.55;;;17.70;99.90;;;;;;5088798;27;20061;-75
2021/09/12 09:07:32;;;;;;;40.10;28.45;;;17.70;99.90;;;;;;5080914;28;20043;-75
2021/09/12 09:09:59;;;;;;;47.35;28.88;;;17.70;99.90;;;;;;5064601;28;20051;-75
2021/09/12 09:12:36;;;;;;;38.70;28.23;;;17.70;99.90;;;;;;5086054;27;20028;-75
2021/09/12 09:15:14;;;;;;;51.40;31.17;;;17.70;99.90;;;;;;5064893;28;20043;-75
2021/09/12 09:17:50;;;;;;;45.40;30.10;;;17.70;99.90;;;;;;5088309;27;20500;-75
2021/09/12 09:20:29;;;;;;;44.78;29.60;;;17.70;99.90;;;;;;5089444;27;20083;-75
2021/09/12 09:22:57;;;;;;;51.22;31.90;;;17.70;99.90;;;;;;5088224;27;20040;-75
2021/09/12 09:25:26;;;;;;;48.88;31.00;;;17.70;99.90;;;;;;5071703;27;20050;-75
2021/09/12 09:27:58;;;;;;;52.57;32.90;;;17.70;99.90;;;;;;5087257;27;20066;-76
2021/09/12 09:30:51;;;;;;;52.60;31.83;;;17.80;99.90;;;;;;5064100;28;20872;-76
2021/09/12 09:33:24;;;;;;;48.55;30.80;;;17.80;99.90;;;;;;5068738;28;20055;-76
2021/09/12 09:36:01;;;;;;;50.13;30.83;;;17.80;99.90;;;;;;5061645;28;20079;-76
2021/09/12 09:38:38;;;;;;;46.47;31.30;;;17.80;99.90;;;;;;5087520;28;20061;-76
2021/09/12 09:41:34;;;;;;;51.63;31.90;;;17.90;99.90;;;;;;5085019;28;20040;-77
2021/09/12 09:44:12;;;;;;;50.95;31.00;;;17.90;99.90;;;;;;5103942;27;20040;-76
2021/09/12 09:46:43;;;;;;;49.47;32.20;;;17.90;99.90;;;;;;5067947;28;20419;-76
2021/09/12 09:49:29;;;;;;;58.58;32.05;;;17.90;99.90;;;;;;5085651;28;20047;-75
2021/09/12 09:52:00;;;;;;;51.28;32.63;;;17.90;99.90;;;;;;5067381;27;20066;-74
2021/09/12 09:54:28;;;;;;;53.80;31.77;;;17.80;99.90;;;;;;5066327;27;20390;-74
2021/09/12 09:56:55;;;;;;;46.97;31.65;;;17.80;99.90;;;;;;5066223;28;20449;-75
2021/09/12 09:59:23;;;;;;;50.08;32.22;;;17.80;99.90;;;;;;5053565;28;20043;-75
2021/09/12 10:01:51;;;;;;;44.25;30.88;;;17.80;99.90;;;;;;5069974;28;20035;-75
2021/09/12 10:04:17;;;;;;;55.22;32.65;;;17.80;99.90;;;;;;5083017;28;20052;-76
2021/09/12 10:06:44;;;;;;;54.80;31.13;;;17.80;99.90;;;;;;5064860;28;20390;-76
2021/09/12 10:09:15;;;;;;;48.55;30.30;;;17.80;99.90;;;;;;5067336;28;20104;-76
2021/09/12 10:11:52;;;;;;;51.05;33.88;;;17.90;99.90;;;;;;5063845;28;20157;-76
2021/09/12 10:14:55;;;;;;;50.95;31.70;;;18.00;99.90;;;;;;5089344;28;20040;-76
2021/09/12 10:17:25;;;;;;;47.50;29.85;;;18.10;99.90;;;;;;5083386;28;20044;-76
2021/09/12 10:20:09;;;;;;;48.33;30.48;;;18.30;99.90;;;;;;5093131;27;20035;-76
2021/09/12 10:22:58;;;;;;;49.85;30.92;;;18.40;99.90;;;;;;5086090;28;20048;-75
2021/09/12 10:25:44;;;;;;;43.40;29.55;;;18.50;99.90;;;;;;5080345;27;20298;-75
2021/09/12 10:28:10;;;;;;;45.78;29.90;;;18.50;99.90;;;;;;5081265;28;20400;-76
2021/09/12 10:30:40;;;;;;;42.30;29.33;;;18.50;99.90;;;;;;5051753;28;20054;-76
2021/09/12 10:33:06;;;;;;;40.88;28.98;;;18.50;99.90;;;;;;5085498;28;20536;-76
2021/09/12 10:35:48;;;;;;;48.85;30.65;;;18.50;99.90;;;;;;5081917;28;20130;-76
2021/09/12 10:38:36;;;;;;;45.45;29.65;;;18.50;99.90;;;;;;5088644;28;20502;-76
2021/09/12 10:41:02;;;;;;;43.25;29.35;;;18.60;99.90;;;;;;5079889;28;20044;-76
2021/09/12 10:43:37;;;;;;;45.03;30.40;;;18.70;99.90;;;;;;5080093;28;20044;-75
2021/09/12 10:46:06;;;;;;;47.50;29.98;;;18.80;99.90;;;;;;5081374;28;20032;-76
2021/09/12 10:48:37;;;;;;;43.72;29.73;;;18.90;99.90;;;;;;5082141;28;20131;-76
2021/09/12 10:51:18;;;;;;;38.47;27.70;;;19.00;99.90;;;;;;5064115;28;20050;-76
2021/09/12 10:53:51;;;;;;;42.50;28.55;;;19.10;99.90;;;;;;5082317;28;20123;-76
2021/09/12 10:56:19;;;;;;;42.22;28.48;;;19.40;99.90;;;;;;5099084;28;20056;-76
2021/09/12 10:58:52;;;;;;;39.80;28.27;;;19.50;99.90;;;;;;5089488;28;20444;-76
2021/09/12 11:01:28;;;;;;;39.58;27.98;;;19.60;99.90;;;;;;5086388;28;20047;-76
2021/09/12 11:04:08;;;;;;;40.45;28.77;;;19.70;99.90;;;;;;5081924;28;20498;-75
2021/09/12 11:06:43;;;;;;;37.20;26.77;;;19.80;99.90;;;;;;5066704;28;20048;-76
2021/09/12 11:09:23;;;;;;;38.40;28.50;;;19.90;99.90;;;;;;5088295;28;20429;-76
2021/09/12 11:11:59;;;;;;;32.53;25.80;;;20.00;99.90;;;;;;5070721;28;20062;-76
2021/09/12 11:14:26;;;;;;;37.33;26.00;;;20.00;99.90;;;;;;5089157;28;20718;-76
2021/09/12 11:16:53;;;;;;;40.05;25.50;;;20.20;99.90;;;;;;5039866;28;20039;-76
2021/09/12 11:19:20;;;;;;;37.47;25.92;;;20.10;99.90;;;;;;5034980;28;20054;-76
2021/09/12 11:21:48;;;;;;;31.33;24.13;;;20.10;99.90;;;;;;5073792;28;20100;-76
2021/09/12 11:24:21;;;;;;;34.55;24.55;;;20.20;99.90;;;;;;5085998;28;20054;-76
2021/09/12 11:26:51;;;;;;;30.23;24.20;;;20.10;99.90;;;;;;5075446;28;20752;-76
2021/09/12 11:29:20;;;;;;;33.00;23.08;;;20.20;99.90;;;;;;5068500;28;20040;-76
2021/09/12 11:31:51;;;;;;;32.13;24.40;;;20.20;99.90;;;;;;5082639;28;20135;-76
2021/09/12 11:34:20;;;;;;;38.88;28.10;;;20.30;99.90;;;;;;5087123;28;20579;-76
2021/09/12 11:36:49;;;;;;;40.45;26.73;;;20.40;99.90;;;;;;5078332;28;20517;-76
2021/09/12 11:39:19;;;;;;;35.53;26.42;;;20.50;99.90;;;;;;5082942;28;20446;-76
2021/09/12 11:41:49;;;;;;;36.38;24.10;;;20.70;99.90;;;;;;5069693;28;20524;-76
2021/09/12 11:44:15;;;;;;;33.75;24.63;;;20.80;99.90;;;;;;5065100;28;20105;-76
2021/09/12 11:46:43;;;;;;;31.92;24.13;;;20.90;99.90;;;;;;5049334;28;20049;-76
2021/09/12 11:49:08;;;;;;;29.35;24.42;;;21.00;99.90;;;;;;5063720;28;20047;-75
2021/09/12 11:51:37;;;;;;;29.85;23.75;;;21.00;99.90;;;;;;5071529;28;20430;-76
2021/09/12 11:54:18;;;;;;;33.67;24.65;;;20.90;99.90;;;;;;5054110;28;20047;-76
2021/09/12 11:56:53;;;;;;;34.67;25.52;;;20.70;99.90;;;;;;5013479;28;20056;-76
2021/09/12 11:59:20;;;;;;;31.88;25.85;;;20.50;99.90;;;;;;5021959;28;20107;-76
2021/09/12 12:01:49;;;;;;;39.85;26.75;;;20.30;99.90;;;;;;5005016;28;20049;-76
2021/09/12 12:04:16;;;;;;;36.28;27.67;;;20.00;99.90;;;;;;5023124;28;20151;-77
2021/09/12 12:06:47;;;;;;;30.48;23.23;;;19.90;99.90;;;;;;5024518;28;20087;-77
2021/09/12 12:09:18;;;;;;;26.10;18.20;;;19.70;99.90;;;;;;4998771;28;20041;-77
2021/09/12 12:11:46;;;;;;;20.45;15.07;;;19.60;99.90;;;;;;5028269;28;20057;-77
2021/09/12 12:14:24;;;;;;;15.20;9.90;;;19.50;99.90;;;;;;5036675;28;20068;-78
2021/09/12 12:16:51;;;;;;;10.65;8.23;;;19.30;99.90;;;;;;5027818;28;20059;-77
2021/09/12 12:19:18;;;;;;;11.82;6.72;;;19.20;99.90;;;;;;5022483;28;20036;-77
2021/09/12 12:21:50;;;;;;;9.23;6.30;;;19.10;99.90;;;;;;5022257;28;20132;-77
2021/09/12 12:24:20;;;;;;;10.50;7.18;;;19.00;99.90;;;;;;5010272;28;20048;-78
2021/09/12 12:26:51;;;;;;;8.18;6.28;;;18.90;99.90;;;;;;5038180;28;20109;-77
2021/09/12 12:29:29;;;;;;;10.07;5.75;;;18.90;99.90;;;;;;5084827;28;20119;-77
2021/09/12 12:31:59;;;;;;;8.05;5.18;;;18.90;99.90;;;;;;5080671;28;20071;-77
2021/09/12 12:34:59;;;;;;;6.28;4.28;;;18.90;99.90;;;;;;5077114;28;20051;-77
2021/09/12 12:37:42;;;;;;;10.32;5.47;;;18.90;99.90;;;;;;5057734;28;20145;-77